sensor_id;sensor_type;location;lat;lon;timestamp;temperature;humidity
38239;DHT22;24035;48.900;9.188;2022-07-29T00:01:52;19.40;99.90
38239;DHT22;24035;48.900;9.188;2022-07-29T00:04:20;19.30;99.90
38239;DHT22;24035;48.900;9.188;2022-07-29T00:06:46;19.30;99.90
38239;DHT22;24035;48.900;9.188;2022-07-29T00:09:12;19.30;99.90
38239;DHT22;24035;48.900;9.188;2022-07-29T00:11:38;19.20;1.00
38239;DHT22;24035;48.900;9.188;2022-07-29T00:14:04;19.10;1.00
38239;DHT22;24035;48.900;9.188;2022-07-29T00:16:29;19.00;37.90
38239;DHT22;24035;48.900;9.188;2022-07-29T00:18:55;19.00;99.90
38239;DHT22;24035;48.900;9.188;2022-07-29T00:21:20;18.90;1.00
38239;DHT22;24035;48.900;9.188;2022-07-29T00:23:46;19.00;1.00
38239;DHT22;24035;48.900;9.188;2022-07-29T00:26:12;19.10;99.90
38239;DHT22;24035;48.900;9.188;2022-07-29T00:28:40;19.00;99.90
38239;DHT22;24035;48.900;9.188;2022-07-29T00:31:05;18.90;1.00
38239;DHT22;24035;48.900;9.188;2022-07-29T00:33:31;18.90;1.00
38239;DHT22;24035;48.900;9.188;2022-07-29T00:35:57;18.80;1.00
38239;DHT22;24035;48.900;9.188;2022-07-29T00:38:22;18.80;1.00
38239;DHT22;24035;48.900;9.188;2022-07-29T00:40:48;18.80;1.00
38239;DHT22;24035;48.900;9.188;2022-07-29T00:43:14;18.70;1.00
38239;DHT22;24035;48.900;9.188;2022-07-29T00:45:41;18.60;1.00
38239;DHT22;24035;48.900;9.188;2022-07-29T00:48:07;18.60;99.90
38239;DHT22;24035;48.900;9.188;2022-07-29T00:50:37;18.60;1.00
38239;DHT22;24035;48.900;9.188;2022-07-29T00:53:06;18.50;99.90
38239;DHT22;24035;48.900;9.188;2022-07-29T00:55:35;18.40;99.90
38239;DHT22;24035;48.900;9.188;2022-07-29T00:58:02;18.50;99.90
38239;DHT22;24035;48.900;9.188;2022-07-29T01:00:30;18.40;1.00
38239;DHT22;24035;48.900;9.188;2022-07-29T01:02:56;18.50;1.00
38239;DHT22;24035;48.900;9.188;2022-07-29T01:05:24;18.50;1.00
38239;DHT22;24035;48.900;9.188;2022-07-29T01:07:53;18.50;1.00
38239;DHT22;24035;48.900;9.188;2022-07-29T01:10:20;18.40;1.00
38239;DHT22;24035;48.900;9.188;2022-07-29T01:12:48;18.30;1.00
38239;DHT22;24035;48.900;9.188;2022-07-29T01:15:14;18.30;1.00
38239;DHT22;24035;48.900;9.188;2022-07-29T01:31:54;18.00;99.90
38239;DHT22;24035;48.900;9.188;2022-07-29T01:37:22;17.90;99.90
38239;DHT22;24035;48.900;9.188;2022-07-29T01:39:53;18.00;1.00
38239;DHT22;24035;48.900;9.188;2022-07-29T01:47:23;18.00;1.00
38239;DHT22;24035;48.900;9.188;2022-07-29T01:49:54;18.00;1.00
38239;DHT22;24035;48.900;9.188;2022-07-29T01:52:34;18.00;99.90
38239;DHT22;24035;48.900;9.188;2022-07-29T01:55:13;17.90;99.90
38239;DHT22;24035;48.900;9.188;2022-07-29T01:57:40;17.90;99.90
38239;DHT22;24035;48.900;9.188;2022-07-29T02:00:08;17.80;99.90
38239;DHT22;24035;48.900;9.188;2022-07-29T02:02:39;17.70;1.00
38239;DHT22;24035;48.900;9.188;2022-07-29T02:05:07;17.70;1.00
38239;DHT22;24035;48.900;9.188;2022-07-29T02:07:34;17.60;1.00
38239;DHT22;24035;48.900;9.188;2022-07-29T02:10:02;17.60;1.00
38239;DHT22;24035;48.900;9.188;2022-07-29T02:12:31;17.60;1.00
38239;DHT22;24035;48.900;9.188;2022-07-29T02:15:01;17.60;68.40
38239;DHT22;24035;48.900;9.188;2022-07-29T02:17:32;17.60;74.10
38239;DHT22;24035;48.900;9.188;2022-07-29T02:20:01;17.60;1.00
38239;DHT22;24035;48.900;9.188;2022-07-29T02:22:30;17.50;93.40
38239;DHT22;24035;48.900;9.188;2022-07-29T02:24:58;17.50;99.90
38239;DHT22;24035;48.900;9.188;2022-07-29T02:27:28;17.40;99.90
38239;DHT22;24035;48.900;9.188;2022-07-29T02:29:55;17.40;99.90
38239;DHT22;24035;48.900;9.188;2022-07-29T02:32:24;17.40;99.90
38239;DHT22;24035;48.900;9.188;2022-07-29T02:34:51;17.40;99.90
38239;DHT22;24035;48.900;9.188;2022-07-29T02:37:18;17.30;99.90
38239;DHT22;24035;48.900;9.188;2022-07-29T02:39:45;17.30;99.90
38239;DHT22;24035;48.900;9.188;2022-07-29T02:42:13;17.30;99.90
38239;DHT22;24035;48.900;9.188;2022-07-29T02:44:40;17.20;99.90
38239;DHT22;24035;48.900;9.188;2022-07-29T02:47:47;17.20;1.00
38239;DHT22;24035;48.900;9.188;2022-07-29T02:50:13;17.20;99.90
38239;DHT22;24035;48.900;9.188;2022-07-29T02:52:57;17.10;1.00
38239;DHT22;24035;48.900;9.188;2022-07-29T02:56:01;17.20;1.00
38239;DHT22;24035;48.900;9.188;2022-07-29T02:58:38;17.20;1.00
38239;DHT22;24035;48.900;9.188;2022-07-29T03:01:19;17.00;1.00
38239;DHT22;24035;48.900;9.188;2022-07-29T03:03:46;17.00;1.00
38239;DHT22;24035;48.900;9.188;2022-07-29T03:06:14;17.00;1.00
38239;DHT22;24035;48.900;9.188;2022-07-29T03:08:41;16.90;1.00
38239;DHT22;24035;48.900;9.188;2022-07-29T03:11:08;16.80;1.00
38239;DHT22;24035;48.900;9.188;2022-07-29T03:13:35;16.80;99.90
38239;DHT22;24035;48.900;9.188;2022-07-29T03:16:01;16.90;1.00
38239;DHT22;24035;48.900;9.188;2022-07-29T03:18:27;16.80;99.90
38239;DHT22;24035;48.900;9.188;2022-07-29T03:20:53;16.80;99.90
38239;DHT22;24035;48.900;9.188;2022-07-29T03:23:20;16.80;1.00
38239;DHT22;24035;48.900;9.188;2022-07-29T03:25:48;16.90;99.90
38239;DHT22;24035;48.900;9.188;2022-07-29T03:28:14;16.90;99.90
38239;DHT22;24035;48.900;9.188;2022-07-29T03:30:40;16.80;1.00
38239;DHT22;24035;48.900;9.188;2022-07-29T03:33:06;16.80;99.90
38239;DHT22;24035;48.900;9.188;2022-07-29T03:35:31;16.80;1.00
38239;DHT22;24035;48.900;9.188;2022-07-29T03:37:58;16.80;1.00
38239;DHT22;24035;48.900;9.188;2022-07-29T03:40:40;16.80;1.00
38239;DHT22;24035;48.900;9.188;2022-07-29T03:43:08;16.80;1.00
38239;DHT22;24035;48.900;9.188;2022-07-29T03:45:35;17.00;1.00
38239;DHT22;24035;48.900;9.188;2022-07-29T03:48:07;17.00;1.00
38239;DHT22;24035;48.900;9.188;2022-07-29T03:50:34;17.10;1.00
38239;DHT22;24035;48.900;9.188;2022-07-29T03:53:01;17.20;99.90
38239;DHT22;24035;48.900;9.188;2022-07-29T03:55:28;17.30;99.90
38239;DHT22;24035;48.900;9.188;2022-07-29T03:57:55;17.40;1.00
38239;DHT22;24035;48.900;9.188;2022-07-29T04:00:23;17.50;99.90
38239;DHT22;24035;48.900;9.188;2022-07-29T04:02:49;17.60;1.00
38239;DHT22;24035;48.900;9.188;2022-07-29T04:05:15;17.70;1.00
38239;DHT22;24035;48.900;9.188;2022-07-29T04:07:44;17.90;99.90
38239;DHT22;24035;48.900;9.188;2022-07-29T04:10:10;17.90;83.40
38239;DHT22;24035;48.900;9.188;2022-07-29T04:12:36;17.90;99.90
38239;DHT22;24035;48.900;9.188;2022-07-29T04:15:03;18.10;1.00
38239;DHT22;24035;48.900;9.188;2022-07-29T04:17:29;18.20;99.90
38239;DHT22;24035;48.900;9.188;2022-07-29T04:19:55;18.20;99.90
38239;DHT22;24035;48.900;9.188;2022-07-29T04:22:20;18.20;99.90
38239;DHT22;24035;48.900;9.188;2022-07-29T04:24:46;18.20;99.90
38239;DHT22;24035;48.900;9.188;2022-07-29T04:27:12;18.10;99.90
38239;DHT22;24035;48.900;9.188;2022-07-29T04:29:38;18.10;99.90
38239;DHT22;24035;48.900;9.188;2022-07-29T04:32:06;18.10;99.90
38239;DHT22;24035;48.900;9.188;2022-07-29T04:34:32;18.10;99.90
38239;DHT22;24035;48.900;9.188;2022-07-29T04:36:57;18.00;99.90
38239;DHT22;24035;48.900;9.188;2022-07-29T04:39:23;18.00;1.00
38239;DHT22;24035;48.900;9.188;2022-07-29T04:41:49;17.90;99.90
38239;DHT22;24035;48.900;9.188;2022-07-29T04:44:15;17.80;1.00
38239;DHT22;24035;48.900;9.188;2022-07-29T04:46:41;17.90;1.00
38239;DHT22;24035;48.900;9.188;2022-07-29T04:49:07;17.80;1.00
38239;DHT22;24035;48.900;9.188;2022-07-29T04:51:33;17.80;1.00
38239;DHT22;24035;48.900;9.188;2022-07-29T04:53:59;17.80;1.00
38239;DHT22;24035;48.900;9.188;2022-07-29T04:56:24;17.90;99.90
38239;DHT22;24035;48.900;9.188;2022-07-29T04:58:50;18.40;1.00
38239;DHT22;24035;48.900;9.188;2022-07-29T05:01:16;18.90;21.50
38239;DHT22;24035;48.900;9.188;2022-07-29T05:03:45;19.50;99.90
38239;DHT22;24035;48.900;9.188;2022-07-29T05:06:13;19.90;1.00
38239;DHT22;24035;48.900;9.188;2022-07-29T05:08:39;20.00;99.90
38239;DHT22;24035;48.900;9.188;2022-07-29T05:11:05;20.00;99.90
38239;DHT22;24035;48.900;9.188;2022-07-29T05:13:30;20.20;99.90
38239;DHT22;24035;48.900;9.188;2022-07-29T05:15:59;20.60;99.90
38239;DHT22;24035;48.900;9.188;2022-07-29T05:18:25;21.20;1.00
38239;DHT22;24035;48.900;9.188;2022-07-29T05:20:51;21.80;99.90
38239;DHT22;24035;48.900;9.188;2022-07-29T05:23:16;22.40;1.00
38239;DHT22;24035;48.900;9.188;2022-07-29T05:25:42;22.40;1.00
38239;DHT22;24035;48.900;9.188;2022-07-29T05:28:07;22.10;1.00
38239;DHT22;24035;48.900;9.188;2022-07-29T05:30:33;21.60;1.00
38239;DHT22;24035;48.900;9.188;2022-07-29T05:32:59;21.50;99.90
38239;DHT22;24035;48.900;9.188;2022-07-29T05:35:25;22.00;10.00
38239;DHT22;24035;48.900;9.188;2022-07-29T05:37:50;22.60;1.00
38239;DHT22;24035;48.900;9.188;2022-07-29T05:40:16;23.10;1.00
38239;DHT22;24035;48.900;9.188;2022-07-29T05:42:42;22.60;1.00
38239;DHT22;24035;48.900;9.188;2022-07-29T05:45:08;22.40;1.00
38239;DHT22;24035;48.900;9.188;2022-07-29T05:47:34;22.30;1.00
38239;DHT22;24035;48.900;9.188;2022-07-29T05:49:59;22.40;1.00
38239;DHT22;24035;48.900;9.188;2022-07-29T05:52:25;22.30;1.00
38239;DHT22;24035;48.900;9.188;2022-07-29T05:54:51;22.10;1.00
38239;DHT22;24035;48.900;9.188;2022-07-29T05:57:21;21.90;31.30
38239;DHT22;24035;48.900;9.188;2022-07-29T05:59:48;21.90;9.90
38239;DHT22;24035;48.900;9.188;2022-07-29T06:02:14;21.90;41.20
38239;DHT22;24035;48.900;9.188;2022-07-29T06:04:40;22.10;1.00
38239;DHT22;24035;48.900;9.188;2022-07-29T06:07:15;22.50;1.00
38239;DHT22;24035;48.900;9.188;2022-07-29T06:09:42;22.90;1.00
38239;DHT22;24035;48.900;9.188;2022-07-29T06:12:10;23.50;1.00
38239;DHT22;24035;48.900;9.188;2022-07-29T06:14:36;24.30;99.90
38239;DHT22;24035;48.900;9.188;2022-07-29T06:17:05;24.80;99.90
38239;DHT22;24035;48.900;9.188;2022-07-29T06:19:34;25.00;1.00
38239;DHT22;24035;48.900;9.188;2022-07-29T06:21:59;25.40;1.00
38239;DHT22;24035;48.900;9.188;2022-07-29T06:24:25;25.50;1.00
38239;DHT22;24035;48.900;9.188;2022-07-29T06:26:50;26.10;1.00
38239;DHT22;24035;48.900;9.188;2022-07-29T06:29:16;26.80;1.00
38239;DHT22;24035;48.900;9.188;2022-07-29T06:31:42;26.90;1.00
38239;DHT22;24035;48.900;9.188;2022-07-29T06:34:10;26.60;1.00
38239;DHT22;24035;48.900;9.188;2022-07-29T06:36:37;26.30;1.00
38239;DHT22;24035;48.900;9.188;2022-07-29T06:39:07;26.50;1.00
38239;DHT22;24035;48.900;9.188;2022-07-29T06:41:33;26.30;99.90
38239;DHT22;24035;48.900;9.188;2022-07-29T06:43:59;26.20;1.00
38239;DHT22;24035;48.900;9.188;2022-07-29T06:46:25;25.90;1.00
38239;DHT22;24035;48.900;9.188;2022-07-29T06:48:51;25.70;1.00
38239;DHT22;24035;48.900;9.188;2022-07-29T06:51:17;25.60;1.00
38239;DHT22;24035;48.900;9.188;2022-07-29T06:53:43;25.50;1.00
38239;DHT22;24035;48.900;9.188;2022-07-29T06:56:09;25.30;1.00
38239;DHT22;24035;48.900;9.188;2022-07-29T06:58:35;25.10;1.00
38239;DHT22;24035;48.900;9.188;2022-07-29T07:01:04;25.10;1.00
38239;DHT22;24035;48.900;9.188;2022-07-29T07:03:30;25.80;1.00
38239;DHT22;24035;48.900;9.188;2022-07-29T07:05:56;26.40;1.00
38239;DHT22;24035;48.900;9.188;2022-07-29T07:08:22;27.50;99.90
38239;DHT22;24035;48.900;9.188;2022-07-29T07:10:49;28.50;99.90
38239;DHT22;24035;48.900;9.188;2022-07-29T07:13:15;29.20;99.90
38239;DHT22;24035;48.900;9.188;2022-07-29T07:15:43;29.70;99.90
38239;DHT22;24035;48.900;9.188;2022-07-29T07:18:09;30.00;99.90
38239;DHT22;24035;48.900;9.188;2022-07-29T07:20:35;29.90;99.90
38239;DHT22;24035;48.900;9.188;2022-07-29T07:23:01;29.30;99.90
38239;DHT22;24035;48.900;9.188;2022-07-29T07:25:27;29.60;99.90
38239;DHT22;24035;48.900;9.188;2022-07-29T07:27:53;29.90;99.90
38239;DHT22;24035;48.900;9.188;2022-07-29T07:30:18;29.70;99.90
38239;DHT22;24035;48.900;9.188;2022-07-29T07:32:44;29.50;99.90
38239;DHT22;24035;48.900;9.188;2022-07-29T07:35:13;29.40;99.90
38239;DHT22;24035;48.900;9.188;2022-07-29T07:37:39;29.70;99.90
38239;DHT22;24035;48.900;9.188;2022-07-29T07:40:06;29.20;99.90
38239;DHT22;24035;48.900;9.188;2022-07-29T07:42:35;28.90;99.90
38239;DHT22;24035;48.900;9.188;2022-07-29T07:45:01;29.30;99.90
38239;DHT22;24035;48.900;9.188;2022-07-29T07:47:26;29.90;99.90
38239;DHT22;24035;48.900;9.188;2022-07-29T07:49:53;30.80;98.80
38239;DHT22;24035;48.900;9.188;2022-07-29T07:52:20;31.60;35.00
38239;DHT22;24035;48.900;9.188;2022-07-29T07:54:47;32.20;22.00
38239;DHT22;24035;48.900;9.188;2022-07-29T07:57:16;32.20;16.40
38239;DHT22;24035;48.900;9.188;2022-07-29T07:59:41;32.20;7.70
38239;DHT22;24035;48.900;9.188;2022-07-29T08:02:08;31.80;10.50
38239;DHT22;24035;48.900;9.188;2022-07-29T08:04:34;31.00;13.70
38239;DHT22;24035;48.900;9.188;2022-07-29T08:07:00;30.40;12.70
38239;DHT22;24035;48.900;9.188;2022-07-29T08:09:27;30.60;23.20
38239;DHT22;24035;48.900;9.188;2022-07-29T08:11:54;30.30;34.30
38239;DHT22;24035;48.900;9.188;2022-07-29T08:14:19;30.00;25.20
38239;DHT22;24035;48.900;9.188;2022-07-29T08:16:45;29.30;54.40
38239;DHT22;24035;48.900;9.188;2022-07-29T08:19:11;29.00;58.50
38239;DHT22;24035;48.900;9.188;2022-07-29T08:21:37;28.80;88.00
38239;DHT22;24035;48.900;9.188;2022-07-29T08:24:03;28.70;67.50
38239;DHT22;24035;48.900;9.188;2022-07-29T08:26:48;28.70;76.70
38239;DHT22;24035;48.900;9.188;2022-07-29T08:29:14;28.90;66.90
38239;DHT22;24035;48.900;9.188;2022-07-29T08:31:40;29.30;51.80
38239;DHT22;24035;48.900;9.188;2022-07-29T08:34:06;29.80;38.60
38239;DHT22;24035;48.900;9.188;2022-07-29T08:36:33;30.40;27.70
38239;DHT22;24035;48.900;9.188;2022-07-29T08:38:59;31.20;2.00
38239;DHT22;24035;48.900;9.188;2022-07-29T08:41:26;32.40;4.90
38239;DHT22;24035;48.900;9.188;2022-07-29T08:43:52;33.30;1.00
38239;DHT22;24035;48.900;9.188;2022-07-29T08:46:19;33.10;1.00
38239;DHT22;24035;48.900;9.188;2022-07-29T08:48:45;31.10;1.00
38239;DHT22;24035;48.900;9.188;2022-07-29T08:51:16;30.00;1.00
38239;DHT22;24035;48.900;9.188;2022-07-29T08:53:43;29.80;1.00
38239;DHT22;24035;48.900;9.188;2022-07-29T08:56:13;29.90;1.00
38239;DHT22;24035;48.900;9.188;2022-07-29T08:58:40;29.20;1.00
38239;DHT22;24035;48.900;9.188;2022-07-29T09:01:07;29.30;1.00
38239;DHT22;24035;48.900;9.188;2022-07-29T09:03:36;29.50;1.00
38239;DHT22;24035;48.900;9.188;2022-07-29T09:06:03;28.90;1.00
38239;DHT22;24035;48.900;9.188;2022-07-29T09:08:31;28.70;1.00
38239;DHT22;24035;48.900;9.188;2022-07-29T09:11:01;28.60;1.00
38239;DHT22;24035;48.900;9.188;2022-07-29T09:13:27;29.60;1.00
38239;DHT22;24035;48.900;9.188;2022-07-29T09:15:52;29.90;1.00
38239;DHT22;24035;48.900;9.188;2022-07-29T09:18:38;30.20;1.00
38239;DHT22;24035;48.900;9.188;2022-07-29T09:21:08;29.50;1.00
38239;DHT22;24035;48.900;9.188;2022-07-29T09:26:34;28.50;1.00
38239;DHT22;24035;48.900;9.188;2022-07-29T09:29:07;28.30;1.00
38239;DHT22;24035;48.900;9.188;2022-07-29T09:31:37;28.70;1.00
38239;DHT22;24035;48.900;9.188;2022-07-29T09:34:04;29.00;1.00
38239;DHT22;24035;48.900;9.188;2022-07-29T09:36:30;29.00;1.00
38239;DHT22;24035;48.900;9.188;2022-07-29T09:39:02;28.90;1.00
38239;DHT22;24035;48.900;9.188;2022-07-29T09:41:28;29.30;1.00
38239;DHT22;24035;48.900;9.188;2022-07-29T09:43:59;28.70;1.00
38239;DHT22;24035;48.900;9.188;2022-07-29T09:46:25;27.90;1.00
38239;DHT22;24035;48.900;9.188;2022-07-29T09:49:11;28.00;1.00
38239;DHT22;24035;48.900;9.188;2022-07-29T09:51:38;28.60;1.00
38239;DHT22;24035;48.900;9.188;2022-07-29T09:54:23;28.80;1.00
38239;DHT22;24035;48.900;9.188;2022-07-29T09:56:50;28.90;1.00
38239;DHT22;24035;48.900;9.188;2022-07-29T09:59:16;28.70;1.00
38239;DHT22;24035;48.900;9.188;2022-07-29T10:01:42;28.50;1.00
38239;DHT22;24035;48.900;9.188;2022-07-29T10:04:09;28.60;1.00
38239;DHT22;24035;48.900;9.188;2022-07-29T10:06:34;28.60;1.00
38239;DHT22;24035;48.900;9.188;2022-07-29T10:09:07;28.70;1.00
38239;DHT22;24035;48.900;9.188;2022-07-29T10:11:34;28.90;1.00
38239;DHT22;24035;48.900;9.188;2022-07-29T10:14:01;28.80;1.00
38239;DHT22;24035;48.900;9.188;2022-07-29T10:16:28;28.50;1.00
38239;DHT22;24035;48.900;9.188;2022-07-29T10:18:59;28.30;1.00
38239;DHT22;24035;48.900;9.188;2022-07-29T10:21:27;28.20;1.00
38239;DHT22;24035;48.900;9.188;2022-07-29T10:23:53;28.00;1.00
38239;DHT22;24035;48.900;9.188;2022-07-29T10:26:20;27.60;1.00
38239;DHT22;24035;48.900;9.188;2022-07-29T10:28:46;27.70;1.00
38239;DHT22;24035;48.900;9.188;2022-07-29T10:31:22;27.70;1.00
38239;DHT22;24035;48.900;9.188;2022-07-29T10:37:20;27.90;1.00
38239;DHT22;24035;48.900;9.188;2022-07-29T10:40:15;27.90;1.00
38239;DHT22;24035;48.900;9.188;2022-07-29T10:43:14;27.80;1.00
38239;DHT22;24035;48.900;9.188;2022-07-29T10:45:44;27.50;1.00
38239;DHT22;24035;48.900;9.188;2022-07-29T10:48:10;27.40;1.00
38239;DHT22;24035;48.900;9.188;2022-07-29T10:50:58;27.20;1.00
38239;DHT22;24035;48.900;9.188;2022-07-29T10:53:49;26.90;1.00
38239;DHT22;24035;48.900;9.188;2022-07-29T10:56:31;26.50;1.00
38239;DHT22;24035;48.900;9.188;2022-07-29T11:01:44;26.50;1.00
38239;DHT22;24035;48.900;9.188;2022-07-29T11:04:09;26.70;1.00
38239;DHT22;24035;48.900;9.188;2022-07-29T11:09:26;26.50;1.00
38239;DHT22;24035;48.900;9.188;2022-07-29T11:11:52;26.50;1.00
38239;DHT22;24035;48.900;9.188;2022-07-29T11:14:58;26.60;1.00
38239;DHT22;24035;48.900;9.188;2022-07-29T11:17:27;26.90;1.00
38239;DHT22;24035;48.900;9.188;2022-07-29T11:22:57;27.30;1.00
38239;DHT22;24035;48.900;9.188;2022-07-29T11:25:23;27.40;1.00
38239;DHT22;24035;48.900;9.188;2022-07-29T11:27:49;27.30;1.00
38239;DHT22;24035;48.900;9.188;2022-07-29T11:30:15;26.80;1.00
38239;DHT22;24035;48.900;9.188;2022-07-29T11:32:43;26.60;1.00
38239;DHT22;24035;48.900;9.188;2022-07-29T11:35:20;26.40;1.00
38239;DHT22;24035;48.900;9.188;2022-07-29T11:41:25;27.40;1.00
38239;DHT22;24035;48.900;9.188;2022-07-29T11:43:56;28.40;1.00
38239;DHT22;24035;48.900;9.188;2022-07-29T11:46:49;29.30;1.00
38239;DHT22;24035;48.900;9.188;2022-07-29T11:49:25;29.80;1.00
38239;DHT22;24035;48.900;9.188;2022-07-29T11:51:53;30.40;1.00
38239;DHT22;24035;48.900;9.188;2022-07-29T11:54:31;31.00;1.00
38239;DHT22;24035;48.900;9.188;2022-07-29T11:57:00;31.10;1.00
38239;DHT22;24035;48.900;9.188;2022-07-29T11:59:26;30.80;1.00
38239;DHT22;24035;48.900;9.188;2022-07-29T12:01:56;30.60;1.00
38239;DHT22;24035;48.900;9.188;2022-07-29T12:04:22;30.70;1.00
38239;DHT22;24035;48.900;9.188;2022-07-29T12:06:53;30.30;1.00
38239;DHT22;24035;48.900;9.188;2022-07-29T12:09:20;30.00;1.00
38239;DHT22;24035;48.900;9.188;2022-07-29T12:11:49;29.80;1.00
38239;DHT22;24035;48.900;9.188;2022-07-29T12:14:28;29.80;1.00
38239;DHT22;24035;48.900;9.188;2022-07-29T12:16:54;29.90;1.00
38239;DHT22;24035;48.900;9.188;2022-07-29T12:19:20;29.90;1.00
38239;DHT22;24035;48.900;9.188;2022-07-29T12:21:47;29.80;1.00
38239;DHT22;24035;48.900;9.188;2022-07-29T12:24:13;29.30;1.00
38239;DHT22;24035;48.900;9.188;2022-07-29T12:26:52;29.10;1.00
38239;DHT22;24035;48.900;9.188;2022-07-29T12:29:18;28.90;1.00
38239;DHT22;24035;48.900;9.188;2022-07-29T12:31:44;28.90;1.00
38239;DHT22;24035;48.900;9.188;2022-07-29T12:34:15;28.70;1.00
38239;DHT22;24035;48.900;9.188;2022-07-29T12:36:41;28.70;1.00
38239;DHT22;24035;48.900;9.188;2022-07-29T12:39:08;28.90;1.00
38239;DHT22;24035;48.900;9.188;2022-07-29T12:41:35;29.10;1.00
38239;DHT22;24035;48.900;9.188;2022-07-29T12:44:01;29.20;1.00
38239;DHT22;24035;48.900;9.188;2022-07-29T12:46:27;28.70;1.00
38239;DHT22;24035;48.900;9.188;2022-07-29T12:48:54;28.50;1.00
38239;DHT22;24035;48.900;9.188;2022-07-29T12:51:34;28.10;1.00
38239;DHT22;24035;48.900;9.188;2022-07-29T12:54:07;27.90;1.00
38239;DHT22;24035;48.900;9.188;2022-07-29T12:56:34;28.00;1.00
38239;DHT22;24035;48.900;9.188;2022-07-29T12:58:59;28.10;1.00
38239;DHT22;24035;48.900;9.188;2022-07-29T13:01:36;28.30;1.00
38239;DHT22;24035;48.900;9.188;2022-07-29T13:04:02;28.60;1.00
38239;DHT22;24035;48.900;9.188;2022-07-29T13:06:37;28.80;1.00
38239;DHT22;24035;48.900;9.188;2022-07-29T13:09:07;28.90;1.00
38239;DHT22;24035;48.900;9.188;2022-07-29T13:11:44;28.80;1.00
38239;DHT22;24035;48.900;9.188;2022-07-29T13:14:13;28.60;1.00
38239;DHT22;24035;48.900;9.188;2022-07-29T13:20:05;28.20;1.00
38239;DHT22;24035;48.900;9.188;2022-07-29T13:22:31;28.10;1.00
38239;DHT22;24035;48.900;9.188;2022-07-29T13:25:01;28.00;1.00
38239;DHT22;24035;48.900;9.188;2022-07-29T13:27:29;27.80;1.00
38239;DHT22;24035;48.900;9.188;2022-07-29T13:29:57;27.70;1.00
38239;DHT22;24035;48.900;9.188;2022-07-29T13:32:24;27.80;1.00
38239;DHT22;24035;48.900;9.188;2022-07-29T13:34:51;27.60;1.00
38239;DHT22;24035;48.900;9.188;2022-07-29T13:37:17;27.60;1.00
38239;DHT22;24035;48.900;9.188;2022-07-29T13:39:43;27.60;1.00
38239;DHT22;24035;48.900;9.188;2022-07-29T13:42:09;27.80;1.00
38239;DHT22;24035;48.900;9.188;2022-07-29T13:44:35;27.90;1.00
38239;DHT22;24035;48.900;9.188;2022-07-29T13:47:01;28.10;1.00
38239;DHT22;24035;48.900;9.188;2022-07-29T13:49:27;28.40;1.00
38239;DHT22;24035;48.900;9.188;2022-07-29T13:51:53;28.70;1.00
38239;DHT22;24035;48.900;9.188;2022-07-29T13:54:19;29.10;1.00
38239;DHT22;24035;48.900;9.188;2022-07-29T13:56:45;29.40;1.00
38239;DHT22;24035;48.900;9.188;2022-07-29T13:59:11;29.50;1.00
38239;DHT22;24035;48.900;9.188;2022-07-29T14:01:37;29.60;1.00
38239;DHT22;24035;48.900;9.188;2022-07-29T14:04:04;29.60;1.00
38239;DHT22;24035;48.900;9.188;2022-07-29T14:06:32;29.40;1.00
38239;DHT22;24035;48.900;9.188;2022-07-29T14:08:58;28.90;1.00
38239;DHT22;24035;48.900;9.188;2022-07-29T14:11:23;29.00;1.00
38239;DHT22;24035;48.900;9.188;2022-07-29T14:13:50;29.10;1.00
38239;DHT22;24035;48.900;9.188;2022-07-29T14:16:16;29.30;1.00
38239;DHT22;24035;48.900;9.188;2022-07-29T14:18:41;29.30;1.00
38239;DHT22;24035;48.900;9.188;2022-07-29T14:21:08;29.30;1.00
38239;DHT22;24035;48.900;9.188;2022-07-29T14:23:33;29.20;1.00
38239;DHT22;24035;48.900;9.188;2022-07-29T14:25:59;29.30;1.00
38239;DHT22;24035;48.900;9.188;2022-07-29T14:28:25;29.40;1.00
38239;DHT22;24035;48.900;9.188;2022-07-29T14:30:50;29.10;1.00
38239;DHT22;24035;48.900;9.188;2022-07-29T14:33:16;29.00;1.00
38239;DHT22;24035;48.900;9.188;2022-07-29T14:35:42;29.00;1.00
38239;DHT22;24035;48.900;9.188;2022-07-29T14:38:07;28.90;1.00
38239;DHT22;24035;48.900;9.188;2022-07-29T14:40:33;29.20;1.00
38239;DHT22;24035;48.900;9.188;2022-07-29T14:42:59;29.50;1.00
38239;DHT22;24035;48.900;9.188;2022-07-29T14:45:25;29.60;1.00
38239;DHT22;24035;48.900;9.188;2022-07-29T14:47:50;29.80;1.00
38239;DHT22;24035;48.900;9.188;2022-07-29T14:50:16;29.80;1.00
38239;DHT22;24035;48.900;9.188;2022-07-29T14:52:43;29.70;1.00
38239;DHT22;24035;48.900;9.188;2022-07-29T14:55:09;29.60;1.00
38239;DHT22;24035;48.900;9.188;2022-07-29T14:57:34;29.70;1.00
38239;DHT22;24035;48.900;9.188;2022-07-29T15:00:01;29.60;1.00
38239;DHT22;24035;48.900;9.188;2022-07-29T15:02:28;29.50;1.00
38239;DHT22;24035;48.900;9.188;2022-07-29T15:04:54;29.70;1.00
38239;DHT22;24035;48.900;9.188;2022-07-29T15:07:19;29.90;1.00
38239;DHT22;24035;48.900;9.188;2022-07-29T15:09:45;30.10;1.00
38239;DHT22;24035;48.900;9.188;2022-07-29T15:12:11;30.10;1.00
38239;DHT22;24035;48.900;9.188;2022-07-29T15:14:37;30.00;1.00
38239;DHT22;24035;48.900;9.188;2022-07-29T15:17:02;29.90;1.00
38239;DHT22;24035;48.900;9.188;2022-07-29T15:19:28;29.70;1.00
38239;DHT22;24035;48.900;9.188;2022-07-29T15:21:54;29.00;1.00
38239;DHT22;24035;48.900;9.188;2022-07-29T15:24:29;28.80;1.00
38239;DHT22;24035;48.900;9.188;2022-07-29T15:27:00;28.60;1.00
38239;DHT22;24035;48.900;9.188;2022-07-29T15:29:26;28.50;1.00
38239;DHT22;24035;48.900;9.188;2022-07-29T15:31:51;28.80;1.00
38239;DHT22;24035;48.900;9.188;2022-07-29T15:34:17;28.60;1.00
38239;DHT22;24035;48.900;9.188;2022-07-29T15:36:43;28.30;1.00
38239;DHT22;24035;48.900;9.188;2022-07-29T15:39:08;28.10;1.00
38239;DHT22;24035;48.900;9.188;2022-07-29T15:41:34;28.30;1.00
38239;DHT22;24035;48.900;9.188;2022-07-29T15:44:00;28.50;1.00
38239;DHT22;24035;48.900;9.188;2022-07-29T15:46:25;28.50;1.00
38239;DHT22;24035;48.900;9.188;2022-07-29T15:49:10;28.20;1.00
38239;DHT22;24035;48.900;9.188;2022-07-29T15:51:35;28.20;1.00
38239;DHT22;24035;48.900;9.188;2022-07-29T15:54:02;28.20;1.00
38239;DHT22;24035;48.900;9.188;2022-07-29T15:56:29;28.30;1.00
38239;DHT22;24035;48.900;9.188;2022-07-29T15:58:55;28.10;1.00
38239;DHT22;24035;48.900;9.188;2022-07-29T16:01:20;28.10;1.00
38239;DHT22;24035;48.900;9.188;2022-07-29T16:03:46;28.20;1.00
38239;DHT22;24035;48.900;9.188;2022-07-29T16:06:12;28.30;1.00
38239;DHT22;24035;48.900;9.188;2022-07-29T16:08:38;28.40;1.00
38239;DHT22;24035;48.900;9.188;2022-07-29T16:11:04;28.20;1.00
38239;DHT22;24035;48.900;9.188;2022-07-29T16:13:29;28.20;1.00
38239;DHT22;24035;48.900;9.188;2022-07-29T16:15:55;28.30;1.00
38239;DHT22;24035;48.900;9.188;2022-07-29T16:18:20;28.20;1.00
38239;DHT22;24035;48.900;9.188;2022-07-29T16:20:46;28.20;1.00
38239;DHT22;24035;48.900;9.188;2022-07-29T16:23:12;28.00;1.00
38239;DHT22;24035;48.900;9.188;2022-07-29T16:25:41;27.80;1.00
38239;DHT22;24035;48.900;9.188;2022-07-29T16:28:07;27.80;1.00
38239;DHT22;24035;48.900;9.188;2022-07-29T16:30:36;27.80;1.00
38239;DHT22;24035;48.900;9.188;2022-07-29T16:33:02;27.80;1.00